sensor_id;sensor_type;location;lat;lon;timestamp;temperature;humidity
61641;HTU21D;62201;49.966;8.342;2023-05-07T00:00:02;16.11;82.89
61641;HTU21D;62201;49.966;8.342;2023-05-07T00:02:28;16.02;85.26
61641;HTU21D;62201;49.966;8.342;2023-05-07T00:04:54;15.92;85.84
61641;HTU21D;62201;49.966;8.342;2023-05-07T00:07:20;15.88;88.25
61641;HTU21D;62201;49.966;8.342;2023-05-07T00:09:46;15.80;88.07
61641;HTU21D;62201;49.966;8.342;2023-05-07T00:12:11;15.75;90.14
61641;HTU21D;62201;49.966;8.342;2023-05-07T00:14:36;15.75;89.10
61641;HTU21D;62201;49.966;8.342;2023-05-07T00:17:02;15.72;88.40
61641;HTU21D;62201;49.966;8.342;2023-05-07T00:19:27;15.72;88.80
61641;HTU21D;62201;49.966;8.342;2023-05-07T00:21:53;15.74;88.47
61641;HTU21D;62201;49.966;8.342;2023-05-07T00:24:22;15.75;88.50
61641;HTU21D;62201;49.966;8.342;2023-05-07T00:26:48;15.76;88.43
61641;HTU21D;62201;49.966;8.342;2023-05-07T00:29:13;15.81;88.44
61641;HTU21D;62201;49.966;8.342;2023-05-07T00:31:38;15.87;87.30
61641;HTU21D;62201;49.966;8.342;2023-05-07T00:34:04;15.89;86.94
61641;HTU21D;62201;49.966;8.342;2023-05-07T00:36:29;15.93;86.49
61641;HTU21D;62201;49.966;8.342;2023-05-07T00:38:56;15.96;85.80
61641;HTU21D;62201;49.966;8.342;2023-05-07T00:41:22;15.99;85.43
61641;HTU21D;62201;49.966;8.342;2023-05-07T00:43:47;16.00;84.93
61641;HTU21D;62201;49.966;8.342;2023-05-07T00:46:13;16.00;84.63
61641;HTU21D;62201;49.966;8.342;2023-05-07T00:48:38;16.00;84.50
61641;HTU21D;62201;49.966;8.342;2023-05-07T00:51:04;16.00;84.49
61641;HTU21D;62201;49.966;8.342;2023-05-07T00:53:30;16.02;84.59
61641;HTU21D;62201;49.966;8.342;2023-05-07T00:55:56;15.97;86.82
61641;HTU21D;62201;49.966;8.342;2023-05-07T00:58:21;15.88;88.53
61641;HTU21D;62201;49.966;8.342;2023-05-07T01:00:47;15.78;89.66
61641;HTU21D;62201;49.966;8.342;2023-05-07T01:03:12;15.75;91.32
61641;HTU21D;62201;49.966;8.342;2023-05-07T01:05:38;15.75;91.08
61641;HTU21D;62201;49.966;8.342;2023-05-07T01:08:04;15.73;91.86
61641;HTU21D;62201;49.966;8.342;2023-05-07T01:10:30;15.66;92.85
61641;HTU21D;62201;49.966;8.342;2023-05-07T01:12:57;15.63;92.92
61641;HTU21D;62201;49.966;8.342;2023-05-07T01:15:23;15.65;91.93
61641;HTU21D;62201;49.966;8.342;2023-05-07T01:17:48;15.65;91.21
61641;HTU21D;62201;49.966;8.342;2023-05-07T01:20:13;15.65;90.76
61641;HTU21D;62201;49.966;8.342;2023-05-07T01:22:40;15.67;89.99
61641;HTU21D;62201;49.966;8.342;2023-05-07T01:25:06;15.70;89.19
61641;HTU21D;62201;49.966;8.342;2023-05-07T01:27:35;15.73;88.69
61641;HTU21D;62201;49.966;8.342;2023-05-07T01:30:03;15.75;88.22
61641;HTU21D;62201;49.966;8.342;2023-05-07T01:35:18;15.81;87.41
61641;HTU21D;62201;49.966;8.342;2023-05-07T01:37:46;15.82;87.05
61641;HTU21D;62201;49.966;8.342;2023-05-07T01:40:12;15.80;86.76
61641;HTU21D;62201;49.966;8.342;2023-05-07T01:42:39;15.80;86.68
61641;HTU21D;62201;49.966;8.342;2023-05-07T01:45:05;15.81;86.51
61641;HTU21D;62201;49.966;8.342;2023-05-07T01:47:30;15.78;86.13
61641;HTU21D;62201;49.966;8.342;2023-05-07T01:49:57;15.80;86.00
61641;HTU21D;62201;49.966;8.342;2023-05-07T01:52:22;15.81;85.70
61641;HTU21D;62201;49.966;8.342;2023-05-07T01:54:48;15.80;85.66
61641;HTU21D;62201;49.966;8.342;2023-05-07T01:57:13;15.78;85.48
61641;HTU21D;62201;49.966;8.342;2023-05-07T01:59:38;15.81;85.31
61641;HTU21D;62201;49.966;8.342;2023-05-07T02:02:04;15.84;85.08
61641;HTU21D;62201;49.966;8.342;2023-05-07T02:04:29;15.86;84.81
61641;HTU21D;62201;49.966;8.342;2023-05-07T02:06:54;15.88;84.45
61641;HTU21D;62201;49.966;8.342;2023-05-07T02:09:20;15.91;84.23
61641;HTU21D;62201;49.966;8.342;2023-05-07T02:11:46;15.93;83.86
61641;HTU21D;62201;49.966;8.342;2023-05-07T02:14:11;15.96;83.67
61641;HTU21D;62201;49.966;8.342;2023-05-07T02:16:37;15.99;83.36
61641;HTU21D;62201;49.966;8.342;2023-05-07T02:19:02;16.02;83.21
61641;HTU21D;62201;49.966;8.342;2023-05-07T02:21:27;16.02;82.88
61641;HTU21D;62201;49.966;8.342;2023-05-07T02:23:53;16.03;82.59
61641;HTU21D;62201;49.966;8.342;2023-05-07T02:26:18;16.04;82.24
61641;HTU21D;62201;49.966;8.342;2023-05-07T02:28:44;16.05;82.04
61641;HTU21D;62201;49.966;8.342;2023-05-07T02:31:09;16.07;81.78
61641;HTU21D;62201;49.966;8.342;2023-05-07T02:33:34;16.08;81.66
61641;HTU21D;62201;49.966;8.342;2023-05-07T02:36:11;16.08;81.47
61641;HTU21D;62201;49.966;8.342;2023-05-07T02:38:37;16.07;81.43
61641;HTU21D;62201;49.966;8.342;2023-05-07T02:41:03;16.07;81.41
61641;HTU21D;62201;49.966;8.342;2023-05-07T02:43:28;16.08;81.35
61641;HTU21D;62201;49.966;8.342;2023-05-07T02:46:04;16.08;81.37
61641;HTU21D;62201;49.966;8.342;2023-05-07T02:48:30;16.08;81.31
61641;HTU21D;62201;49.966;8.342;2023-05-07T02:50:55;16.11;81.32
61641;HTU21D;62201;49.966;8.342;2023-05-07T02:53:21;16.10;81.28
61641;HTU21D;62201;49.966;8.342;2023-05-07T02:55:46;16.08;81.37
61641;HTU21D;62201;49.966;8.342;2023-05-07T02:58:11;16.11;81.36
61641;HTU21D;62201;49.966;8.342;2023-05-07T03:00:37;16.10;81.41
61641;HTU21D;62201;49.966;8.342;2023-05-07T03:03:02;16.12;81.34
61641;HTU21D;62201;49.966;8.342;2023-05-07T03:05:28;16.10;81.33
61641;HTU21D;62201;49.966;8.342;2023-05-07T03:07:53;16.12;81.34
61641;HTU21D;62201;49.966;8.342;2023-05-07T03:10:18;16.12;81.33
61641;HTU21D;62201;49.966;8.342;2023-05-07T03:12:44;16.13;81.31
61641;HTU21D;62201;49.966;8.342;2023-05-07T03:15:09;16.15;81.06
61641;HTU21D;62201;49.966;8.342;2023-05-07T03:17:36;16.15;81.02
61641;HTU21D;62201;49.966;8.342;2023-05-07T03:20:02;16.15;81.04
61641;HTU21D;62201;49.966;8.342;2023-05-07T03:22:27;16.14;81.07
61641;HTU21D;62201;49.966;8.342;2023-05-07T03:24:53;16.12;81.10
61641;HTU21D;62201;49.966;8.342;2023-05-07T03:27:18;16.10;81.26
61641;HTU21D;62201;49.966;8.342;2023-05-07T03:29:43;16.08;81.33
61641;HTU21D;62201;49.966;8.342;2023-05-07T03:32:09;16.07;81.32
61641;HTU21D;62201;49.966;8.342;2023-05-07T03:34:34;16.06;81.34
61641;HTU21D;62201;49.966;8.342;2023-05-07T03:37:00;16.04;81.33
61641;HTU21D;62201;49.966;8.342;2023-05-07T03:39:25;16.03;81.27
61641;HTU21D;62201;49.966;8.342;2023-05-07T03:41:50;16.03;80.96
61641;HTU21D;62201;49.966;8.342;2023-05-07T03:44:16;16.02;80.82
61641;HTU21D;62201;49.966;8.342;2023-05-07T03:46:41;16.04;80.65
61641;HTU21D;62201;49.966;8.342;2023-05-07T03:49:07;16.03;80.64
61641;HTU21D;62201;49.966;8.342;2023-05-07T03:51:32;16.00;80.57
61641;HTU21D;62201;49.966;8.342;2023-05-07T03:53:57;15.99;80.56
61641;HTU21D;62201;49.966;8.342;2023-05-07T03:56:23;16.01;80.44
61641;HTU21D;62201;49.966;8.342;2023-05-07T03:58:51;16.00;80.53
61641;HTU21D;62201;49.966;8.342;2023-05-07T04:01:17;16.00;80.44
61641;HTU21D;62201;49.966;8.342;2023-05-07T04:03:42;16.04;80.21
61641;HTU21D;62201;49.966;8.342;2023-05-07T04:06:08;16.05;80.15
61641;HTU21D;62201;49.966;8.342;2023-05-07T04:08:33;16.07;79.86
61641;HTU21D;62201;49.966;8.342;2023-05-07T04:10:58;16.08;79.75
61641;HTU21D;62201;49.966;8.342;2023-05-07T04:13:25;16.11;79.69
61641;HTU21D;62201;49.966;8.342;2023-05-07T04:15:55;16.10;79.69
61641;HTU21D;62201;49.966;8.342;2023-05-07T04:18:20;16.12;79.59
61641;HTU21D;62201;49.966;8.342;2023-05-07T04:20:47;16.13;79.49
61641;HTU21D;62201;49.966;8.342;2023-05-07T04:23:13;16.13;79.42
61641;HTU21D;62201;49.966;8.342;2023-05-07T04:25:38;16.13;79.15
61641;HTU21D;62201;49.966;8.342;2023-05-07T04:28:04;16.15;79.03
61641;HTU21D;62201;49.966;8.342;2023-05-07T04:30:29;16.14;78.91
61641;HTU21D;62201;49.966;8.342;2023-05-07T04:32:55;16.13;78.79
61641;HTU21D;62201;49.966;8.342;2023-05-07T04:35:21;16.13;78.86
61641;HTU21D;62201;49.966;8.342;2023-05-07T04:37:47;16.13;78.85
61641;HTU21D;62201;49.966;8.342;2023-05-07T04:40:12;16.13;78.44
61641;HTU21D;62201;49.966;8.342;2023-05-07T04:42:38;16.13;78.43
61641;HTU21D;62201;49.966;8.342;2023-05-07T04:45:04;16.15;78.24
61641;HTU21D;62201;49.966;8.342;2023-05-07T04:47:30;16.16;77.64
61641;HTU21D;62201;49.966;8.342;2023-05-07T04:49:55;16.19;77.61
61641;HTU21D;62201;49.966;8.342;2023-05-07T04:52:20;16.21;77.22
61641;HTU21D;62201;49.966;8.342;2023-05-07T04:54:46;16.21;77.08
61641;HTU21D;62201;49.966;8.342;2023-05-07T04:57:11;16.25;76.92
61641;HTU21D;62201;49.966;8.342;2023-05-07T04:59:37;16.30;76.41
61641;HTU21D;62201;49.966;8.342;2023-05-07T05:02:02;16.31;76.02
61641;HTU21D;62201;49.966;8.342;2023-05-07T05:04:29;16.33;75.77
61641;HTU21D;62201;49.966;8.342;2023-05-07T05:06:55;16.37;75.48
61641;HTU21D;62201;49.966;8.342;2023-05-07T05:09:20;16.40;75.38
61641;HTU21D;62201;49.966;8.342;2023-05-07T05:11:45;16.46;75.08
61641;HTU21D;62201;49.966;8.342;2023-05-07T05:14:11;16.50;74.96
61641;HTU21D;62201;49.966;8.342;2023-05-07T05:16:36;16.51;74.76
61641;HTU21D;62201;49.966;8.342;2023-05-07T05:19:02;16.55;74.47
61641;HTU21D;62201;49.966;8.342;2023-05-07T05:21:28;16.58;74.32
61641;HTU21D;62201;49.966;8.342;2023-05-07T05:23:53;16.63;74.12
61641;HTU21D;62201;49.966;8.342;2023-05-07T05:26:19;16.64;74.03
61641;HTU21D;62201;49.966;8.342;2023-05-07T05:28:46;16.67;73.75
61641;HTU21D;62201;49.966;8.342;2023-05-07T05:31:11;16.71;73.77
61641;HTU21D;62201;49.966;8.342;2023-05-07T05:33:37;16.71;73.65
61641;HTU21D;62201;49.966;8.342;2023-05-07T05:36:03;16.72;73.66
61641;HTU21D;62201;49.966;8.342;2023-05-07T05:38:28;16.71;73.96
61641;HTU21D;62201;49.966;8.342;2023-05-07T05:40:54;16.71;74.23
61641;HTU21D;62201;49.966;8.342;2023-05-07T05:43:19;16.72;74.18
61641;HTU21D;62201;49.966;8.342;2023-05-07T05:45:45;16.76;73.91
61641;HTU21D;62201;49.966;8.342;2023-05-07T05:48:10;16.78;74.05
61641;HTU21D;62201;49.966;8.342;2023-05-07T05:50:36;16.84;73.73
61641;HTU21D;62201;49.966;8.342;2023-05-07T05:53:01;16.95;73.51
61641;HTU21D;62201;49.966;8.342;2023-05-07T05:55:27;17.02;72.77
61641;HTU21D;62201;49.966;8.342;2023-05-07T05:57:53;17.09;71.97
61641;HTU21D;62201;49.966;8.342;2023-05-07T06:00:19;17.16;71.65
61641;HTU21D;62201;49.966;8.342;2023-05-07T06:02:47;17.21;71.37
61641;HTU21D;62201;49.966;8.342;2023-05-07T06:05:13;17.26;70.70
61641;HTU21D;62201;49.966;8.342;2023-05-07T06:07:38;17.29;70.62
61641;HTU21D;62201;49.966;8.342;2023-05-07T06:10:04;17.31;70.32
61641;HTU21D;62201;49.966;8.342;2023-05-07T06:12:29;17.40;70.16
61641;HTU21D;62201;49.966;8.342;2023-05-07T06:14:55;17.43;69.65
61641;HTU21D;62201;49.966;8.342;2023-05-07T06:17:20;17.48;69.68
61641;HTU21D;62201;49.966;8.342;2023-05-07T06:19:45;17.52;69.20
61641;HTU21D;62201;49.966;8.342;2023-05-07T06:22:11;17.60;68.51
61641;HTU21D;62201;49.966;8.342;2023-05-07T06:24:36;17.64;68.18
61641;HTU21D;62201;49.966;8.342;2023-05-07T06:27:01;17.75;67.97
61641;HTU21D;62201;49.966;8.342;2023-05-07T06:29:27;17.92;67.13
61641;HTU21D;62201;49.966;8.342;2023-05-07T06:31:53;17.78;66.91
61641;HTU21D;62201;49.966;8.342;2023-05-07T06:34:18;17.82;67.30
61641;HTU21D;62201;49.966;8.342;2023-05-07T06:36:44;18.02;67.15
61641;HTU21D;62201;49.966;8.342;2023-05-07T06:39:09;18.09;66.71
61641;HTU21D;62201;49.966;8.342;2023-05-07T06:41:34;17.95;66.60
61641;HTU21D;62201;49.966;8.342;2023-05-07T06:44:01;17.91;66.60
61641;HTU21D;62201;49.966;8.342;2023-05-07T06:46:27;17.93;66.62
61641;HTU21D;62201;49.966;8.342;2023-05-07T06:48:53;17.90;66.44
61641;HTU21D;62201;49.966;8.342;2023-05-07T06:51:18;17.81;66.80
61641;HTU21D;62201;49.966;8.342;2023-05-07T06:53:44;17.89;66.46
61641;HTU21D;62201;49.966;8.342;2023-05-07T06:56:09;17.85;66.71
61641;HTU21D;62201;49.966;8.342;2023-05-07T06:58:35;17.89;66.38
61641;HTU21D;62201;49.966;8.342;2023-05-07T07:01:00;18.03;66.17
61641;HTU21D;62201;49.966;8.342;2023-05-07T07:03:25;18.02;65.72
61641;HTU21D;62201;49.966;8.342;2023-05-07T07:05:52;18.04;65.70
61641;HTU21D;62201;49.966;8.342;2023-05-07T07:08:18;18.09;65.08
61641;HTU21D;62201;49.966;8.342;2023-05-07T07:10:43;18.06;64.61
61641;HTU21D;62201;49.966;8.342;2023-05-07T07:13:09;18.04;64.18
61641;HTU21D;62201;49.966;8.342;2023-05-07T07:15:34;17.93;63.79
61641;HTU21D;62201;49.966;8.342;2023-05-07T07:17:59;17.94;64.15
61641;HTU21D;62201;49.966;8.342;2023-05-07T07:20:25;17.99;64.20
61641;HTU21D;62201;49.966;8.342;2023-05-07T07:22:50;18.07;64.27
61641;HTU21D;62201;49.966;8.342;2023-05-07T07:25:16;18.07;64.37
61641;HTU21D;62201;49.966;8.342;2023-05-07T07:27:41;18.19;64.23
61641;HTU21D;62201;49.966;8.342;2023-05-07T07:30:07;18.25;64.18
61641;HTU21D;62201;49.966;8.342;2023-05-07T07:32:33;18.27;64.05
61641;HTU21D;62201;49.966;8.342;2023-05-07T07:34:59;18.26;63.56
61641;HTU21D;62201;49.966;8.342;2023-05-07T07:37:24;18.30;63.72
61641;HTU21D;62201;49.966;8.342;2023-05-07T07:39:50;18.34;63.62
61641;HTU21D;62201;49.966;8.342;2023-05-07T07:42:16;18.28;63.34
61641;HTU21D;62201;49.966;8.342;2023-05-07T07:44:41;18.33;63.45
61641;HTU21D;62201;49.966;8.342;2023-05-07T07:47:06;18.36;63.40
61641;HTU21D;62201;49.966;8.342;2023-05-07T07:49:32;18.55;63.21
61641;HTU21D;62201;49.966;8.342;2023-05-07T07:51:57;18.64;63.06
61641;HTU21D;62201;49.966;8.342;2023-05-07T07:54:24;18.66;62.98
61641;HTU21D;62201;49.966;8.342;2023-05-07T07:56:50;18.73;62.52
61641;HTU21D;62201;49.966;8.342;2023-05-07T07:59:16;18.64;62.67
61641;HTU21D;62201;49.966;8.342;2023-05-07T08:01:44;18.64;62.48
61641;HTU21D;62201;49.966;8.342;2023-05-07T08:04:09;18.55;62.51
61641;HTU21D;62201;49.966;8.342;2023-05-07T08:06:35;18.56;62.22
61641;HTU21D;62201;49.966;8.342;2023-05-07T08:09:01;18.58;62.15
61641;HTU21D;62201;49.966;8.342;2023-05-07T08:11:26;18.59;62.24
61641;HTU21D;62201;49.966;8.342;2023-05-07T08:13:52;18.66;62.04
61641;HTU21D;62201;49.966;8.342;2023-05-07T08:16:17;18.73;61.80
61641;HTU21D;62201;49.966;8.342;2023-05-07T08:18:43;18.84;61.55
61641;HTU21D;62201;49.966;8.342;2023-05-07T08:21:08;18.88;61.34
61641;HTU21D;62201;49.966;8.342;2023-05-07T08:23:33;18.89;61.06
61641;HTU21D;62201;49.966;8.342;2023-05-07T08:26:00;19.03;60.86
61641;HTU21D;62201;49.966;8.342;2023-05-07T08:28:25;19.33;60.14
61641;HTU21D;62201;49.966;8.342;2023-05-07T08:30:50;19.40;59.92
61641;HTU21D;62201;49.966;8.342;2023-05-07T08:33:16;19.32;59.71
61641;HTU21D;62201;49.966;8.342;2023-05-07T08:35:41;19.38;59.78
61641;HTU21D;62201;49.966;8.342;2023-05-07T08:38:07;19.42;59.78
61641;HTU21D;62201;49.966;8.342;2023-05-07T08:40:38;19.60;59.72
61641;HTU21D;62201;49.966;8.342;2023-05-07T08:43:05;19.75;58.93
61641;HTU21D;62201;49.966;8.342;2023-05-07T08:45:33;20.04;57.85
61641;HTU21D;62201;49.966;8.342;2023-05-07T08:48:02;20.01;58.13
61641;HTU21D;62201;49.966;8.342;2023-05-07T08:50:28;20.21;57.49
61641;HTU21D;62201;49.966;8.342;2023-05-07T08:52:55;20.32;56.90
61641;HTU21D;62201;49.966;8.342;2023-05-07T08:55:23;20.36;57.10
61641;HTU21D;62201;49.966;8.342;2023-05-07T08:57:49;20.58;56.59
61641;HTU21D;62201;49.966;8.342;2023-05-07T09:00:15;20.93;55.61
61641;HTU21D;62201;49.966;8.342;2023-05-07T09:02:41;20.80;55.65
61641;HTU21D;62201;49.966;8.342;2023-05-07T09:05:07;20.78;55.65
61641;HTU21D;62201;49.966;8.342;2023-05-07T09:07:32;20.85;55.33
61641;HTU21D;62201;49.966;8.342;2023-05-07T09:09:58;20.88;55.45
61641;HTU21D;62201;49.966;8.342;2023-05-07T09:12:24;21.16;54.33
61641;HTU21D;62201;49.966;8.342;2023-05-07T09:14:50;20.92;54.55
61641;HTU21D;62201;49.966;8.342;2023-05-07T09:17:16;20.84;54.59
61641;HTU21D;62201;49.966;8.342;2023-05-07T09:19:44;21.02;54.45
61641;HTU21D;62201;49.966;8.342;2023-05-07T09:22:09;21.40;54.03
61641;HTU21D;62201;49.966;8.342;2023-05-07T09:24:35;21.84;53.01
61641;HTU21D;62201;49.966;8.342;2023-05-07T09:27:04;21.98;52.91
61641;HTU21D;62201;49.966;8.342;2023-05-07T09:29:29;22.18;51.99
61641;HTU21D;62201;49.966;8.342;2023-05-07T09:31:56;22.08;52.02
61641;HTU21D;62201;49.966;8.342;2023-05-07T09:34:21;22.32;51.65
61641;HTU21D;62201;49.966;8.342;2023-05-07T09:36:47;22.43;51.34
61641;HTU21D;62201;49.966;8.342;2023-05-07T09:39:13;22.37;50.94
61641;HTU21D;62201;49.966;8.342;2023-05-07T09:41:46;22.18;51.17
61641;HTU21D;62201;49.966;8.342;2023-05-07T09:44:12;22.24;51.66
61641;HTU21D;62201;49.966;8.342;2023-05-07T09:46:42;22.64;50.84
61641;HTU21D;62201;49.966;8.342;2023-05-07T09:49:33;22.29;50.87
61641;HTU21D;62201;49.966;8.342;2023-05-07T09:51:57;22.41;50.32
61641;HTU21D;62201;49.966;8.342;2023-05-07T09:54:25;21.99;51.35
61641;HTU21D;62201;49.966;8.342;2023-05-07T09:56:52;22.20;50.88
61641;HTU21D;62201;49.966;8.342;2023-05-07T09:59:18;22.36;50.74
61641;HTU21D;62201;49.966;8.342;2023-05-07T10:01:45;22.56;50.69
61641;HTU21D;62201;49.966;8.342;2023-05-07T10:04:11;22.58;50.26
61641;HTU21D;62201;49.966;8.342;2023-05-07T10:06:37;22.51;50.43
61641;HTU21D;62201;49.966;8.342;2023-05-07T10:09:04;22.80;49.91
61641;HTU21D;62201;49.966;8.342;2023-05-07T10:11:33;23.06;49.30
61641;HTU21D;62201;49.966;8.342;2023-05-07T10:14:00;23.23;48.95
61641;HTU21D;62201;49.966;8.342;2023-05-07T10:16:32;22.87;48.94
61641;HTU21D;62201;49.966;8.342;2023-05-07T10:19:05;23.60;47.47
61641;HTU21D;62201;49.966;8.342;2023-05-07T10:21:39;23.66;47.23
61641;HTU21D;62201;49.966;8.342;2023-05-07T10:24:22;23.67;46.92
61641;HTU21D;62201;49.966;8.342;2023-05-07T10:26:51;23.57;46.70
61641;HTU21D;62201;49.966;8.342;2023-05-07T10:34:44;25.07;44.55
61641;HTU21D;62201;49.966;8.342;2023-05-07T10:37:11;25.56;42.63
61641;HTU21D;62201;49.966;8.342;2023-05-07T10:39:37;25.68;42.84
61641;HTU21D;62201;49.966;8.342;2023-05-07T10:42:10;25.30;42.70
61641;HTU21D;62201;49.966;8.342;2023-05-07T10:44:35;25.82;42.19
61641;HTU21D;62201;49.966;8.342;2023-05-07T10:47:13;25.98;41.21
61641;HTU21D;62201;49.966;8.342;2023-05-07T10:52:27;26.54;39.78
61641;HTU21D;62201;49.966;8.342;2023-05-07T10:57:45;25.46;42.62
61641;HTU21D;62201;49.966;8.342;2023-05-07T11:05:27;25.69;42.27
61641;HTU21D;62201;49.966;8.342;2023-05-07T11:08:03;25.71;42.03
61641;HTU21D;62201;49.966;8.342;2023-05-07T11:13:16;26.08;41.68
61641;HTU21D;62201;49.966;8.342;2023-05-07T11:18:10;25.96;41.76
61641;HTU21D;62201;49.966;8.342;2023-05-07T11:20:53;25.68;41.77
61641;HTU21D;62201;49.966;8.342;2023-05-07T11:26:07;26.09;40.44
61641;HTU21D;62201;49.966;8.342;2023-05-07T11:28:41;25.61;41.06
61641;HTU21D;62201;49.966;8.342;2023-05-07T11:31:07;25.90;40.65
61641;HTU21D;62201;49.966;8.342;2023-05-07T11:33:34;26.26;39.98
61641;HTU21D;62201;49.966;8.342;2023-05-07T11:36:00;25.92;40.49
61641;HTU21D;62201;49.966;8.342;2023-05-07T11:38:27;25.96;40.52
61641;HTU21D;62201;49.966;8.342;2023-05-07T11:40:55;25.96;40.69
61641;HTU21D;62201;49.966;8.342;2023-05-07T11:43:21;25.97;40.67
61641;HTU21D;62201;49.966;8.342;2023-05-07T11:45:47;25.75;40.90
61641;HTU21D;62201;49.966;8.342;2023-05-07T11:48:14;26.18;40.29
61641;HTU21D;62201;49.966;8.342;2023-05-07T11:53:28;25.61;41.29
61641;HTU21D;62201;49.966;8.342;2023-05-07T11:56:00;25.45;41.61
61641;HTU21D;62201;49.966;8.342;2023-05-07T11:58:25;25.91;40.43
61641;HTU21D;62201;49.966;8.342;2023-05-07T12:00:54;26.50;39.42
61641;HTU21D;62201;49.966;8.342;2023-05-07T12:03:20;26.66;39.04
61641;HTU21D;62201;49.966;8.342;2023-05-07T12:05:47;27.05;38.05
61641;HTU21D;62201;49.966;8.342;2023-05-07T12:08:17;26.92;37.55
61641;HTU21D;62201;49.966;8.342;2023-05-07T12:10:43;27.17;37.45
61641;HTU21D;62201;49.966;8.342;2023-05-07T12:15:42;26.31;38.13
61641;HTU21D;62201;49.966;8.342;2023-05-07T12:18:08;26.46;37.43
61641;HTU21D;62201;49.966;8.342;2023-05-07T12:20:35;26.47;36.30
61641;HTU21D;62201;49.966;8.342;2023-05-07T12:23:01;26.23;34.77
61641;HTU21D;62201;49.966;8.342;2023-05-07T12:25:29;26.07;35.24
61641;HTU21D;62201;49.966;8.342;2023-05-07T12:27:55;26.57;34.52
61641;HTU21D;62201;49.966;8.342;2023-05-07T12:30:20;26.63;34.80
61641;HTU21D;62201;49.966;8.342;2023-05-07T12:32:47;26.33;35.81
61641;HTU21D;62201;49.966;8.342;2023-05-07T12:35:12;26.02;36.66
61641;HTU21D;62201;49.966;8.342;2023-05-07T12:37:38;26.21;36.34
61641;HTU21D;62201;49.966;8.342;2023-05-07T12:40:10;26.03;36.79
61641;HTU21D;62201;49.966;8.342;2023-05-07T12:42:37;26.22;36.40
61641;HTU21D;62201;49.966;8.342;2023-05-07T12:45:29;26.01;36.72
61641;HTU21D;62201;49.966;8.342;2023-05-07T12:47:54;25.94;37.13
61641;HTU21D;62201;49.966;8.342;2023-05-07T12:50:20;25.92;36.95
61641;HTU21D;62201;49.966;8.342;2023-05-07T12:52:48;26.25;36.51
61641;HTU21D;62201;49.966;8.342;2023-05-07T12:55:15;26.36;36.71
61641;HTU21D;62201;49.966;8.342;2023-05-07T12:57:42;26.18;36.72
61641;HTU21D;62201;49.966;8.342;2023-05-07T13:00:09;26.19;36.66
61641;HTU21D;62201;49.966;8.342;2023-05-07T13:02:39;26.08;37.42
61641;HTU21D;62201;49.966;8.342;2023-05-07T13:05:05;26.30;37.47
61641;HTU21D;62201;49.966;8.342;2023-05-07T13:07:31;26.71;36.59
61641;HTU21D;62201;49.966;8.342;2023-05-07T13:09:56;26.94;35.92
61641;HTU21D;62201;49.966;8.342;2023-05-07T13:12:22;26.94;35.03
61641;HTU21D;62201;49.966;8.342;2023-05-07T13:14:47;26.55;35.33
61641;HTU21D;62201;49.966;8.342;2023-05-07T13:17:13;26.16;35.22
61641;HTU21D;62201;49.966;8.342;2023-05-07T13:19:38;26.47;35.03
61641;HTU21D;62201;49.966;8.342;2023-05-07T13:22:03;26.57;34.77
61641;HTU21D;62201;49.966;8.342;2023-05-07T13:24:29;26.51;34.55
61641;HTU21D;62201;49.966;8.342;2023-05-07T13:26:54;26.81;33.58
61641;HTU21D;62201;49.966;8.342;2023-05-07T13:29:20;27.32;32.76
61641;HTU21D;62201;49.966;8.342;2023-05-07T13:31:50;27.90;31.84
61641;HTU21D;62201;49.966;8.342;2023-05-07T13:34:15;27.52;32.92
61641;HTU21D;62201;49.966;8.342;2023-05-07T13:36:41;27.71;33.34
61641;HTU21D;62201;49.966;8.342;2023-05-07T13:39:07;27.98;33.14
61641;HTU21D;62201;49.966;8.342;2023-05-07T13:41:32;28.00;32.72
61641;HTU21D;62201;49.966;8.342;2023-05-07T13:43:58;28.40;32.01
61641;HTU21D;62201;49.966;8.342;2023-05-07T13:46:23;28.76;30.53
61641;HTU21D;62201;49.966;8.342;2023-05-07T13:48:49;28.32;30.45
61641;HTU21D;62201;49.966;8.342;2023-05-07T13:51:15;28.14;30.12
61641;HTU21D;62201;49.966;8.342;2023-05-07T13:53:42;28.00;30.38
61641;HTU21D;62201;49.966;8.342;2023-05-07T13:56:07;27.70;30.60
61641;HTU21D;62201;49.966;8.342;2023-05-07T13:58:33;27.78;31.12
61641;HTU21D;62201;49.966;8.342;2023-05-07T14:00:58;28.12;30.94
61641;HTU21D;62201;49.966;8.342;2023-05-07T14:03:23;28.71;30.02
61641;HTU21D;62201;49.966;8.342;2023-05-07T14:05:49;27.93;30.61
61641;HTU21D;62201;49.966;8.342;2023-05-07T14:08:14;27.66;30.86
61641;HTU21D;62201;49.966;8.342;2023-05-07T14:10:40;27.38;30.79
61641;HTU21D;62201;49.966;8.342;2023-05-07T14:13:05;27.09;31.45
61641;HTU21D;62201;49.966;8.342;2023-05-07T14:15:31;27.10;31.64
61641;HTU21D;62201;49.966;8.342;2023-05-07T14:17:58;26.79;31.91
61641;HTU21D;62201;49.966;8.342;2023-05-07T14:20:24;26.71;32.48
61641;HTU21D;62201;49.966;8.342;2023-05-07T14:22:50;26.43;33.18
61641;HTU21D;62201;49.966;8.342;2023-05-07T14:25:16;26.40;33.53
61641;HTU21D;62201;49.966;8.342;2023-05-07T14:27:41;26.24;34.02
61641;HTU21D;62201;49.966;8.342;2023-05-07T14:30:07;26.34;34.22
61641;HTU21D;62201;49.966;8.342;2023-05-07T14:32:33;26.15;34.89
61641;HTU21D;62201;49.966;8.342;2023-05-07T14:34:59;26.01;35.38
61641;HTU21D;62201;49.966;8.342;2023-05-07T14:37:24;26.20;34.32
61641;HTU21D;62201;49.966;8.342;2023-05-07T14:39:50;26.16;34.60
61641;HTU21D;62201;49.966;8.342;2023-05-07T14:42:15;25.88;35.26
61641;HTU21D;62201;49.966;8.342;2023-05-07T14:44:40;25.76;35.78
61641;HTU21D;62201;49.966;8.342;2023-05-07T14:47:06;25.87;35.97
61641;HTU21D;62201;49.966;8.342;2023-05-07T14:49:33;25.76;36.53
61641;HTU21D;62201;49.966;8.342;2023-05-07T14:51:58;25.88;36.19
61641;HTU21D;62201;49.966;8.342;2023-05-07T14:54:27;25.99;35.88
61641;HTU21D;62201;49.966;8.342;2023-05-07T14:56:53;25.65;37.17
61641;HTU21D;62201;49.966;8.342;2023-05-07T14:59:19;25.51;37.59
61641;HTU21D;62201;49.966;8.342;2023-05-07T15:01:46;25.36;38.03
61641;HTU21D;62201;49.966;8.342;2023-05-07T15:04:12;25.14;38.38
61641;HTU21D;62201;49.966;8.342;2023-05-07T15:06:37;24.95;39.72
61641;HTU21D;62201;49.966;8.342;2023-05-07T15:09:03;24.75;41.07
61641;HTU21D;62201;49.966;8.342;2023-05-07T15:11:28;24.68;41.49
61641;HTU21D;62201;49.966;8.342;2023-05-07T15:13:53;24.57;41.75
61641;HTU21D;62201;49.966;8.342;2023-05-07T15:16:19;24.47;41.94
61641;HTU21D;62201;49.966;8.342;2023-05-07T15:18:45;24.42;41.74
61641;HTU21D;62201;49.966;8.342;2023-05-07T15:21:11;24.38;42.02
61641;HTU21D;62201;49.966;8.342;2023-05-07T15:23:36;24.40;42.23
61641;HTU21D;62201;49.966;8.342;2023-05-07T15:26:02;24.31;42.52
61641;HTU21D;62201;49.966;8.342;2023-05-07T15:28:27;24.24;42.86
61641;HTU21D;62201;49.966;8.342;2023-05-07T15:30:54;24.12;43.35
61641;HTU21D;62201;49.966;8.342;2023-05-07T15:33:20;24.05;43.65
61641;HTU21D;62201;49.966;8.342;2023-05-07T15:35:45;24.00;43.58
61641;HTU21D;62201;49.966;8.342;2023-05-07T15:38:11;23.96;43.64
61641;HTU21D;62201;49.966;8.342;2023-05-07T15:40:38;23.95;43.61